EKSBEDHK

Guest
Details From EKSB - Sonderborg
To EDHK - Kiel Holtenau
Flight Number -
Tags Routegen
Created
Modified
Stats Distance 37 nm / 69 km
Max Altitude 0 ft / 0 m
Waypoints 2
Social Downloads 0
Likes 0
Share VATSIM

Download

Looking for another format? Having issues loading an existing format? Contact us
Advertisement - Login to hide

Notes

None

Route

EKSB EDHK

ID Type Via Altitude Latitude Longitude Leg Dist Tot Dist Heading (true) Name
O EKSB APT - 0 ft / 0 m 54.96895˚ 9.78489˚ - 0 nm - -
O EDHK APT - 0 ft / 0 m 54.37871˚ 10.13557˚ 37 nm 37 nm 161° / 161° Kiel Holtenau

Altitude Profile

Advertisement - Login to hide

EKSB

Details ICAO EKSB (SGD)
Name Sonderborg
Region Denmark / Faroe Islands
Timezone Europe/Copenhagen (UTC+1.0)
Stats Elevation 24 ft / 7 m (AMSL)
Location 54.962829° 9.794023°
Runways 1
Magnetic Variation 2.739° E

METAR

EKSB 150620Z 21007KT 9999 SCT006 SCT050 02/02 Q0990

Decode

TAF

Not found

Departure Runways

ID Width Length Bearing (true) Bearing (mag) Surface Threshold Offset Overrun Length
14 98 ft / 30 m 5,884 ft / 1,793 m 139.42° 136.68° Asphalt 0 ft / 0 m 0 ft / 0 m
32 98 ft / 30 m 5,884 ft / 1,793 m 319.43° 316.69° Asphalt 0 ft / 0 m 0 ft / 0 m

EDHK

Details ICAO EDHK (KEL)
Name Kiel Holtenau
Region Germany - Civil
Timezone Europe/Berlin (UTC+1.0)
Stats Elevation 101 ft / 31 m (AMSL)
Location 54.380440° 10.144904°
Runways 2
Magnetic Variation 2.848° E

METAR

EDHK 150550Z 25007KT 190V280 7000 BKN007 OVC010 02/01 Q0990

Decode

TAF

Not found

Destination Runways

ID Width Length Bearing (true) Bearing (mag) Surface Threshold Offset Overrun Length
08 98 ft / 30 m 4,138 ft / 1,261 m 81.98° 79.13° Asphalt 525 ft / 160 m 279 ft / 85 m
08L 98 ft / 30 m 1,478 ft / 450 m 80.65° 77.80° Grass 0 ft / 0 m 0 ft / 0 m
26 98 ft / 30 m 4,138 ft / 1,261 m 261.99° 259.14° Asphalt 151 ft / 46 m 207 ft / 63 m
26R 98 ft / 30 m 1,478 ft / 450 m 260.65° 257.80° Grass 0 ft / 0 m 0 ft / 0 m

Approach Navaids

Runway Type Ident Frequency Range Bearing (true) Bearing (mag) Slope Elevation
08 Localiser IKHE 109.50 MHz 18 nm / 33 km 81.98° 79.14° - 87 ft / 27 m (AMSL)
08 Glidescope IKHE 109.50 MHz 10 nm / 19 km 81.98° 79.14° 3.00° 99 ft / 30 m (AMSL)
26 Localiser IKHW 109.50 MHz 18 nm / 33 km 262.37° 259.52° - 97 ft / 30 m (AMSL)
26 Glidescope IKHW 109.50 MHz 10 nm / 19 km 260.65° 257.80° 3.00° 99 ft / 30 m (AMSL)